sensor_id;sensor_type;location;lat;lon;timestamp;temperature;humidity
46336;DHT22;31365;48.858;8.530;2023-01-04T00:01:23;5.10;99.90
46336;DHT22;31365;48.858;8.530;2023-01-04T00:03:53;5.10;99.90
46336;DHT22;31365;48.858;8.530;2023-01-04T00:06:22;5.10;99.90
46336;DHT22;31365;48.858;8.530;2023-01-04T00:08:50;5.10;99.90
46336;DHT22;31365;48.858;8.530;2023-01-04T00:11:20;5.10;99.90
46336;DHT22;31365;48.858;8.530;2023-01-04T00:13:54;5.10;99.90
46336;DHT22;31365;48.858;8.530;2023-01-04T00:21:37;5.10;99.90
46336;DHT22;31365;48.858;8.530;2023-01-04T00:24:06;5.00;99.90
46336;DHT22;31365;48.858;8.530;2023-01-04T00:26:36;5.00;99.90
46336;DHT22;31365;48.858;8.530;2023-01-04T00:29:08;5.00;99.90
46336;DHT22;31365;48.858;8.530;2023-01-04T00:31:40;5.00;99.90
46336;DHT22;31365;48.858;8.530;2023-01-04T00:43:54;4.80;99.90
46336;DHT22;31365;48.858;8.530;2023-01-04T00:46:22;4.70;99.90
46336;DHT22;31365;48.858;8.530;2023-01-04T00:48:50;4.60;99.90
46336;DHT22;31365;48.858;8.530;2023-01-04T00:51:26;4.60;99.90
46336;DHT22;31365;48.858;8.530;2023-01-04T00:53:55;4.50;99.90
46336;DHT22;31365;48.858;8.530;2023-01-04T00:56:24;4.50;99.90
46336;DHT22;31365;48.858;8.530;2023-01-04T01:08:09;4.50;99.90
46336;DHT22;31365;48.858;8.530;2023-01-04T01:10:53;4.50;99.90
46336;DHT22;31365;48.858;8.530;2023-01-04T01:13:22;4.40;99.90
46336;DHT22;31365;48.858;8.530;2023-01-04T01:15:50;4.50;99.90
46336;DHT22;31365;48.858;8.530;2023-01-04T01:18:19;4.50;99.90
46336;DHT22;31365;48.858;8.530;2023-01-04T01:20:48;4.40;99.90
46336;DHT22;31365;48.858;8.530;2023-01-04T01:23:18;4.30;99.90
46336;DHT22;31365;48.858;8.530;2023-01-04T01:25:46;4.20;99.90
46336;DHT22;31365;48.858;8.530;2023-01-04T01:28:15;4.20;99.90
46336;DHT22;31365;48.858;8.530;2023-01-04T01:30:43;4.20;99.90
46336;DHT22;31365;48.858;8.530;2023-01-04T01:33:12;4.30;99.90
46336;DHT22;31365;48.858;8.530;2023-01-04T01:35:41;4.10;99.90
46336;DHT22;31365;48.858;8.530;2023-01-04T01:38:10;4.20;99.90
46336;DHT22;31365;48.858;8.530;2023-01-04T01:40:41;4.10;99.90
46336;DHT22;31365;48.858;8.530;2023-01-04T01:43:16;4.00;99.90
46336;DHT22;31365;48.858;8.530;2023-01-04T01:45:49;4.10;99.90
46336;DHT22;31365;48.858;8.530;2023-01-04T01:48:25;4.00;99.90
46336;DHT22;31365;48.858;8.530;2023-01-04T01:50:57;4.00;99.90
46336;DHT22;31365;48.858;8.530;2023-01-04T01:53:33;4.00;99.90
46336;DHT22;31365;48.858;8.530;2023-01-04T01:56:07;3.90;99.90
46336;DHT22;31365;48.858;8.530;2023-01-04T01:58:42;3.90;99.90
46336;DHT22;31365;48.858;8.530;2023-01-04T02:01:13;3.90;99.90
46336;DHT22;31365;48.858;8.530;2023-01-04T02:03:42;3.90;99.90
46336;DHT22;31365;48.858;8.530;2023-01-04T02:06:13;3.90;99.90
46336;DHT22;31365;48.858;8.530;2023-01-04T02:08:47;4.00;99.90
46336;DHT22;31365;48.858;8.530;2023-01-04T02:28:46;4.20;99.90
46336;DHT22;31365;48.858;8.530;2023-01-04T02:31:38;4.20;99.90
46336;DHT22;31365;48.858;8.530;2023-01-04T02:34:17;4.20;99.90
46336;DHT22;31365;48.858;8.530;2023-01-04T02:36:57;4.20;99.90
46336;DHT22;31365;48.858;8.530;2023-01-04T02:39:34;4.20;99.90
46336;DHT22;31365;48.858;8.530;2023-01-04T02:42:15;4.20;99.90
46336;DHT22;31365;48.858;8.530;2023-01-04T02:45:14;4.30;99.90
46336;DHT22;31365;48.858;8.530;2023-01-04T02:47:45;4.20;99.90
46336;DHT22;31365;48.858;8.530;2023-01-04T02:50:36;4.20;99.90
46336;DHT22;31365;48.858;8.530;2023-01-04T02:53:11;4.20;99.90
46336;DHT22;31365;48.858;8.530;2023-01-04T02:55:47;4.30;99.90
46336;DHT22;31365;48.858;8.530;2023-01-04T02:58:37;4.20;99.90
46336;DHT22;31365;48.858;8.530;2023-01-04T03:01:29;4.20;99.90
46336;DHT22;31365;48.858;8.530;2023-01-04T03:04:35;4.20;99.90
46336;DHT22;31365;48.858;8.530;2023-01-04T03:07:36;4.20;99.90
46336;DHT22;31365;48.858;8.530;2023-01-04T03:10:17;4.20;99.90
46336;DHT22;31365;48.858;8.530;2023-01-04T03:12:58;4.30;99.90
46336;DHT22;31365;48.858;8.530;2023-01-04T03:15:36;4.30;99.90
46336;DHT22;31365;48.858;8.530;2023-01-04T03:18:13;4.40;99.90
46336;DHT22;31365;48.858;8.530;2023-01-04T03:20:48;4.50;99.90
46336;DHT22;31365;48.858;8.530;2023-01-04T03:23:23;4.50;99.90
46336;DHT22;31365;48.858;8.530;2023-01-04T03:26:14;4.70;99.90
46336;DHT22;31365;48.858;8.530;2023-01-04T03:29:09;4.50;99.90
46336;DHT22;31365;48.858;8.530;2023-01-04T03:32:03;4.50;99.90
46336;DHT22;31365;48.858;8.530;2023-01-04T03:34:53;4.50;99.90
46336;DHT22;31365;48.858;8.530;2023-01-04T03:37:46;4.50;99.90
46336;DHT22;31365;48.858;8.530;2023-01-04T03:40:42;4.60;99.90
46336;DHT22;31365;48.858;8.530;2023-01-04T03:43:36;4.80;99.90
46336;DHT22;31365;48.858;8.530;2023-01-04T03:46:31;5.00;99.90
46336;DHT22;31365;48.858;8.530;2023-01-04T03:49:26;4.70;99.90
46336;DHT22;31365;48.858;8.530;2023-01-04T03:51:59;4.70;99.90
46336;DHT22;31365;48.858;8.530;2023-01-04T03:54:35;4.70;99.90
46336;DHT22;31365;48.858;8.530;2023-01-04T03:57:06;4.60;99.90
46336;DHT22;31365;48.858;8.530;2023-01-04T03:59:38;4.60;99.90
46336;DHT22;31365;48.858;8.530;2023-01-04T04:02:11;4.60;99.90
46336;DHT22;31365;48.858;8.530;2023-01-04T04:04:45;4.60;99.90
46336;DHT22;31365;48.858;8.530;2023-01-04T04:07:31;4.60;99.90
46336;DHT22;31365;48.858;8.530;2023-01-04T04:10:19;4.50;99.90
46336;DHT22;31365;48.858;8.530;2023-01-04T04:12:48;4.60;99.90
46336;DHT22;31365;48.858;8.530;2023-01-04T04:15:18;4.60;99.90
46336;DHT22;31365;48.858;8.530;2023-01-04T04:17:46;4.80;99.90
46336;DHT22;31365;48.858;8.530;2023-01-04T04:20:15;4.60;99.90
46336;DHT22;31365;48.858;8.530;2023-01-04T04:22:43;4.80;99.90
46336;DHT22;31365;48.858;8.530;2023-01-04T04:25:12;4.60;99.90
46336;DHT22;31365;48.858;8.530;2023-01-04T04:27:42;4.60;99.90
46336;DHT22;31365;48.858;8.530;2023-01-04T04:30:11;4.50;99.90
46336;DHT22;31365;48.858;8.530;2023-01-04T04:32:40;4.40;99.90
46336;DHT22;31365;48.858;8.530;2023-01-04T04:35:09;4.50;99.90
46336;DHT22;31365;48.858;8.530;2023-01-04T04:37:37;4.50;99.90
46336;DHT22;31365;48.858;8.530;2023-01-04T04:40:07;4.40;99.90
46336;DHT22;31365;48.858;8.530;2023-01-04T04:42:58;4.50;99.90
46336;DHT22;31365;48.858;8.530;2023-01-04T04:45:25;4.50;99.90
46336;DHT22;31365;48.858;8.530;2023-01-04T04:47:54;4.40;99.90
46336;DHT22;31365;48.858;8.530;2023-01-04T04:50:23;4.40;99.90
46336;DHT22;31365;48.858;8.530;2023-01-04T04:52:51;4.40;99.90
46336;DHT22;31365;48.858;8.530;2023-01-04T04:55:22;4.60;99.90
46336;DHT22;31365;48.858;8.530;2023-01-04T04:57:51;4.40;99.90
46336;DHT22;31365;48.858;8.530;2023-01-04T05:00:21;4.40;99.90
46336;DHT22;31365;48.858;8.530;2023-01-04T05:02:50;4.40;99.90
46336;DHT22;31365;48.858;8.530;2023-01-04T05:05:19;4.80;99.90
46336;DHT22;31365;48.858;8.530;2023-01-04T05:07:48;5.30;99.90
46336;DHT22;31365;48.858;8.530;2023-01-04T05:10:17;5.70;99.90
46336;DHT22;31365;48.858;8.530;2023-01-04T05:12:45;6.00;99.90
46336;DHT22;31365;48.858;8.530;2023-01-04T05:15:31;6.30;99.90
46336;DHT22;31365;48.858;8.530;2023-01-04T05:18:02;6.60;99.90
46336;DHT22;31365;48.858;8.530;2023-01-04T05:20:32;6.90;99.90
46336;DHT22;31365;48.858;8.530;2023-01-04T05:23:01;7.10;99.90
46336;DHT22;31365;48.858;8.530;2023-01-04T05:25:29;7.20;99.90
46336;DHT22;31365;48.858;8.530;2023-01-04T05:27:58;7.30;99.90
46336;DHT22;31365;48.858;8.530;2023-01-04T05:30:28;7.50;99.90
46336;DHT22;31365;48.858;8.530;2023-01-04T05:33:18;7.70;99.90
46336;DHT22;31365;48.858;8.530;2023-01-04T05:35:49;7.80;99.90
46336;DHT22;31365;48.858;8.530;2023-01-04T05:38:19;7.90;99.90
46336;DHT22;31365;48.858;8.530;2023-01-04T05:40:49;8.00;99.90
46336;DHT22;31365;48.858;8.530;2023-01-04T05:43:19;8.00;99.90
46336;DHT22;31365;48.858;8.530;2023-01-04T05:45:52;8.10;99.90
46336;DHT22;31365;48.858;8.530;2023-01-04T05:48:23;8.30;99.90
46336;DHT22;31365;48.858;8.530;2023-01-04T05:50:52;8.40;99.90
46336;DHT22;31365;48.858;8.530;2023-01-04T05:53:21;8.20;99.90
46336;DHT22;31365;48.858;8.530;2023-01-04T05:55:49;8.20;99.90
46336;DHT22;31365;48.858;8.530;2023-01-04T05:58:18;8.40;99.90
46336;DHT22;31365;48.858;8.530;2023-01-04T06:00:46;8.30;99.90
46336;DHT22;31365;48.858;8.530;2023-01-04T06:03:16;8.60;99.90
46336;DHT22;31365;48.858;8.530;2023-01-04T06:05:48;8.40;99.90
46336;DHT22;31365;48.858;8.530;2023-01-04T06:08:17;8.50;99.90
46336;DHT22;31365;48.858;8.530;2023-01-04T06:10:51;8.50;99.90
46336;DHT22;31365;48.858;8.530;2023-01-04T06:13:20;8.60;99.90
46336;DHT22;31365;48.858;8.530;2023-01-04T06:15:49;8.70;99.90
46336;DHT22;31365;48.858;8.530;2023-01-04T06:18:19;8.90;99.90
46336;DHT22;31365;48.858;8.530;2023-01-04T06:20:50;8.80;99.90
46336;DHT22;31365;48.858;8.530;2023-01-04T06:23:18;9.10;99.90
46336;DHT22;31365;48.858;8.530;2023-01-04T06:25:47;8.90;99.90
46336;DHT22;31365;48.858;8.530;2023-01-04T06:28:16;8.80;99.90
46336;DHT22;31365;48.858;8.530;2023-01-04T06:30:45;8.90;99.90
46336;DHT22;31365;48.858;8.530;2023-01-04T06:33:13;9.30;99.90
46336;DHT22;31365;48.858;8.530;2023-01-04T06:35:43;9.20;99.90
46336;DHT22;31365;48.858;8.530;2023-01-04T06:38:11;9.00;99.90
46336;DHT22;31365;48.858;8.530;2023-01-04T06:40:40;9.30;99.90
46336;DHT22;31365;48.858;8.530;2023-01-04T06:43:08;8.90;99.90
46336;DHT22;31365;48.858;8.530;2023-01-04T06:45:37;9.10;99.90
46336;DHT22;31365;48.858;8.530;2023-01-04T06:48:05;9.20;99.90
46336;DHT22;31365;48.858;8.530;2023-01-04T06:50:35;9.10;99.90
46336;DHT22;31365;48.858;8.530;2023-01-04T06:53:05;9.10;99.90
46336;DHT22;31365;48.858;8.530;2023-01-04T06:55:33;9.00;99.90
46336;DHT22;31365;48.858;8.530;2023-01-04T06:58:01;9.20;99.90
46336;DHT22;31365;48.858;8.530;2023-01-04T07:00:30;9.00;99.90
46336;DHT22;31365;48.858;8.530;2023-01-04T07:02:59;8.90;99.90
46336;DHT22;31365;48.858;8.530;2023-01-04T07:05:41;9.10;99.90
46336;DHT22;31365;48.858;8.530;2023-01-04T07:08:12;8.80;99.90
46336;DHT22;31365;48.858;8.530;2023-01-04T07:10:41;8.80;99.90
46336;DHT22;31365;48.858;8.530;2023-01-04T07:13:10;8.80;99.90
46336;DHT22;31365;48.858;8.530;2023-01-04T07:15:39;8.80;99.90
46336;DHT22;31365;48.858;8.530;2023-01-04T07:18:08;8.80;99.90
46336;DHT22;31365;48.858;8.530;2023-01-04T07:20:37;8.80;99.90
46336;DHT22;31365;48.858;8.530;2023-01-04T07:23:06;8.90;99.90
46336;DHT22;31365;48.858;8.530;2023-01-04T07:25:37;8.80;99.90
46336;DHT22;31365;48.858;8.530;2023-01-04T07:28:05;8.80;99.90
46336;DHT22;31365;48.858;8.530;2023-01-04T07:30:34;8.80;99.90
46336;DHT22;31365;48.858;8.530;2023-01-04T07:33:03;8.80;99.90
46336;DHT22;31365;48.858;8.530;2023-01-04T07:35:31;8.70;99.90
46336;DHT22;31365;48.858;8.530;2023-01-04T07:38:00;8.70;99.90
46336;DHT22;31365;48.858;8.530;2023-01-04T07:40:29;8.80;99.90
46336;DHT22;31365;48.858;8.530;2023-01-04T07:42:59;8.80;99.90
46336;DHT22;31365;48.858;8.530;2023-01-04T07:45:28;8.70;99.90
46336;DHT22;31365;48.858;8.530;2023-01-04T07:47:57;8.70;99.90
46336;DHT22;31365;48.858;8.530;2023-01-04T07:50:25;8.80;99.90
46336;DHT22;31365;48.858;8.530;2023-01-04T07:52:54;9.00;99.90
46336;DHT22;31365;48.858;8.530;2023-01-04T07:55:23;8.80;99.90
46336;DHT22;31365;48.858;8.530;2023-01-04T07:57:52;9.10;99.90
46336;DHT22;31365;48.858;8.530;2023-01-04T08:00:22;9.00;99.90
46336;DHT22;31365;48.858;8.530;2023-01-04T08:02:51;8.80;99.90
46336;DHT22;31365;48.858;8.530;2023-01-04T08:05:19;8.80;99.90
46336;DHT22;31365;48.858;8.530;2023-01-04T08:07:51;8.80;99.90
46336;DHT22;31365;48.858;8.530;2023-01-04T08:10:20;8.90;99.90
46336;DHT22;31365;48.858;8.530;2023-01-04T08:12:49;8.90;99.90
46336;DHT22;31365;48.858;8.530;2023-01-04T08:15:17;9.30;99.90
46336;DHT22;31365;48.858;8.530;2023-01-04T08:17:47;8.80;99.90
46336;DHT22;31365;48.858;8.530;2023-01-04T08:20:18;8.90;99.90
46336;DHT22;31365;48.858;8.530;2023-01-04T08:22:47;8.90;99.90
46336;DHT22;31365;48.858;8.530;2023-01-04T08:25:15;8.90;99.90
46336;DHT22;31365;48.858;8.530;2023-01-04T08:27:44;9.00;99.90
46336;DHT22;31365;48.858;8.530;2023-01-04T08:30:13;9.10;99.90
46336;DHT22;31365;48.858;8.530;2023-01-04T08:32:42;9.00;99.90
46336;DHT22;31365;48.858;8.530;2023-01-04T08:35:12;9.10;99.90
46336;DHT22;31365;48.858;8.530;2023-01-04T08:37:40;9.20;99.90
46336;DHT22;31365;48.858;8.530;2023-01-04T08:40:09;9.10;99.90
46336;DHT22;31365;48.858;8.530;2023-01-04T08:42:40;9.20;99.90
46336;DHT22;31365;48.858;8.530;2023-01-04T08:45:09;9.20;99.90
46336;DHT22;31365;48.858;8.530;2023-01-04T08:47:38;9.20;99.90
46336;DHT22;31365;48.858;8.530;2023-01-04T08:50:07;9.30;99.90
46336;DHT22;31365;48.858;8.530;2023-01-04T08:52:38;9.30;99.90
46336;DHT22;31365;48.858;8.530;2023-01-04T08:55:07;9.40;99.90
46336;DHT22;31365;48.858;8.530;2023-01-04T08:57:39;9.50;99.90
46336;DHT22;31365;48.858;8.530;2023-01-04T09:00:08;9.60;99.90
46336;DHT22;31365;48.858;8.530;2023-01-04T09:02:37;9.70;99.90
46336;DHT22;31365;48.858;8.530;2023-01-04T09:05:07;9.90;99.90
46336;DHT22;31365;48.858;8.530;2023-01-04T09:07:35;9.80;99.90
46336;DHT22;31365;48.858;8.530;2023-01-04T09:10:06;9.90;99.90
46336;DHT22;31365;48.858;8.530;2023-01-04T09:12:35;10.00;99.90
46336;DHT22;31365;48.858;8.530;2023-01-04T09:15:05;10.00;99.90
46336;DHT22;31365;48.858;8.530;2023-01-04T09:17:34;10.10;99.90
46336;DHT22;31365;48.858;8.530;2023-01-04T09:20:23;10.10;99.90
46336;DHT22;31365;48.858;8.530;2023-01-04T09:22:53;10.30;99.90
46336;DHT22;31365;48.858;8.530;2023-01-04T09:25:23;10.30;99.90
46336;DHT22;31365;48.858;8.530;2023-01-04T09:27:52;10.70;99.90
46336;DHT22;31365;48.858;8.530;2023-01-04T09:30:21;10.40;99.90
46336;DHT22;31365;48.858;8.530;2023-01-04T09:32:50;10.60;99.90
46336;DHT22;31365;48.858;8.530;2023-01-04T09:35:21;10.50;99.90
46336;DHT22;31365;48.858;8.530;2023-01-04T09:37:50;10.60;99.90
46336;DHT22;31365;48.858;8.530;2023-01-04T09:40:23;10.60;99.90
46336;DHT22;31365;48.858;8.530;2023-01-04T09:42:58;10.70;99.90
46336;DHT22;31365;48.858;8.530;2023-01-04T09:45:52;10.70;99.90
46336;DHT22;31365;48.858;8.530;2023-01-04T09:48:28;10.70;99.90
46336;DHT22;31365;48.858;8.530;2023-01-04T09:51:02;10.80;99.90
46336;DHT22;31365;48.858;8.530;2023-01-04T09:53:35;10.90;99.90
46336;DHT22;31365;48.858;8.530;2023-01-04T09:56:19;11.00;99.90
46336;DHT22;31365;48.858;8.530;2023-01-04T09:58:51;11.00;99.90
46336;DHT22;31365;48.858;8.530;2023-01-04T10:01:23;11.10;99.90
46336;DHT22;31365;48.858;8.530;2023-01-04T10:04:00;11.00;99.90
46336;DHT22;31365;48.858;8.530;2023-01-04T10:06:36;11.10;99.90
46336;DHT22;31365;48.858;8.530;2023-01-04T10:09:09;11.10;99.90
46336;DHT22;31365;48.858;8.530;2023-01-04T10:12:00;11.00;99.90
46336;DHT22;31365;48.858;8.530;2023-01-04T10:14:54;11.20;99.90
46336;DHT22;31365;48.858;8.530;2023-01-04T10:17:42;11.20;99.90
46336;DHT22;31365;48.858;8.530;2023-01-04T10:24:23;11.20;99.90
46336;DHT22;31365;48.858;8.530;2023-01-04T10:27:05;11.30;99.90
46336;DHT22;31365;48.858;8.530;2023-01-04T10:29:46;11.40;99.90
46336;DHT22;31365;48.858;8.530;2023-01-04T10:32:32;11.40;99.90
46336;DHT22;31365;48.858;8.530;2023-01-04T10:35:16;11.30;99.90
46336;DHT22;31365;48.858;8.530;2023-01-04T10:37:49;11.50;99.90
46336;DHT22;31365;48.858;8.530;2023-01-04T10:40:21;11.30;99.90
46336;DHT22;31365;48.858;8.530;2023-01-04T10:42:58;11.30;99.90
46336;DHT22;31365;48.858;8.530;2023-01-04T10:45:40;11.30;99.90
46336;DHT22;31365;48.858;8.530;2023-01-04T10:48:19;11.30;99.90
46336;DHT22;31365;48.858;8.530;2023-01-04T10:50:55;11.30;99.90
46336;DHT22;31365;48.858;8.530;2023-01-04T10:53:38;11.30;99.90
46336;DHT22;31365;48.858;8.530;2023-01-04T10:56:17;11.40;99.90
46336;DHT22;31365;48.858;8.530;2023-01-04T10:59:00;11.80;99.90
46336;DHT22;31365;48.858;8.530;2023-01-04T11:01:37;11.50;99.90
46336;DHT22;31365;48.858;8.530;2023-01-04T11:04:14;11.30;99.90
46336;DHT22;31365;48.858;8.530;2023-01-04T11:06:51;11.50;99.90
46336;DHT22;31365;48.858;8.530;2023-01-04T11:09:26;11.50;99.90
46336;DHT22;31365;48.858;8.530;2023-01-04T11:12:01;11.40;99.90
46336;DHT22;31365;48.858;8.530;2023-01-04T11:14:35;11.40;99.90
46336;DHT22;31365;48.858;8.530;2023-01-04T11:17:05;11.50;99.90
46336;DHT22;31365;48.858;8.530;2023-01-04T11:19:36;11.60;99.90
46336;DHT22;31365;48.858;8.530;2023-01-04T11:22:10;11.50;99.90
46336;DHT22;31365;48.858;8.530;2023-01-04T11:24:43;11.70;99.90
46336;DHT22;31365;48.858;8.530;2023-01-04T11:27:43;11.70;99.90
46336;DHT22;31365;48.858;8.530;2023-01-04T11:30:18;11.70;99.90
46336;DHT22;31365;48.858;8.530;2023-01-04T11:32:54;11.70;99.90
46336;DHT22;31365;48.858;8.530;2023-01-04T11:35:38;11.60;99.90
46336;DHT22;31365;48.858;8.530;2023-01-04T11:38:11;11.60;99.90
46336;DHT22;31365;48.858;8.530;2023-01-04T11:40:54;11.70;99.90
46336;DHT22;31365;48.858;8.530;2023-01-04T11:43:28;11.70;99.90
46336;DHT22;31365;48.858;8.530;2023-01-04T11:46:05;11.80;99.90
46336;DHT22;31365;48.858;8.530;2023-01-04T11:48:38;11.70;99.90
46336;DHT22;31365;48.858;8.530;2023-01-04T11:51:17;11.80;99.90
46336;DHT22;31365;48.858;8.530;2023-01-04T11:54:01;11.90;99.90
46336;DHT22;31365;48.858;8.530;2023-01-04T11:56:35;11.90;99.90
46336;DHT22;31365;48.858;8.530;2023-01-04T11:59:10;12.00;99.90
46336;DHT22;31365;48.858;8.530;2023-01-04T12:02:19;12.10;99.90
46336;DHT22;31365;48.858;8.530;2023-01-04T12:05:18;11.90;99.90
46336;DHT22;31365;48.858;8.530;2023-01-04T12:08:21;12.10;99.90
46336;DHT22;31365;48.858;8.530;2023-01-04T12:10:57;12.00;99.90
46336;DHT22;31365;48.858;8.530;2023-01-04T12:13:27;12.30;99.90
46336;DHT22;31365;48.858;8.530;2023-01-04T12:16:03;12.20;99.90
46336;DHT22;31365;48.858;8.530;2023-01-04T12:18:37;12.40;99.90
46336;DHT22;31365;48.858;8.530;2023-01-04T12:21:15;12.40;99.90
46336;DHT22;31365;48.858;8.530;2023-01-04T12:23:46;12.30;99.90
46336;DHT22;31365;48.858;8.530;2023-01-04T12:26:16;12.20;99.90
46336;DHT22;31365;48.858;8.530;2023-01-04T12:28:47;12.20;99.90
46336;DHT22;31365;48.858;8.530;2023-01-04T12:31:27;12.30;99.90
46336;DHT22;31365;48.858;8.530;2023-01-04T12:34:39;12.20;99.90
46336;DHT22;31365;48.858;8.530;2023-01-04T12:37:10;12.20;99.90
46336;DHT22;31365;48.858;8.530;2023-01-04T12:40:54;12.20;99.90
46336;DHT22;31365;48.858;8.530;2023-01-04T12:43:26;12.10;99.90
46336;DHT22;31365;48.858;8.530;2023-01-04T12:46:39;12.10;99.90
46336;DHT22;31365;48.858;8.530;2023-01-04T12:49:47;12.10;99.90
46336;DHT22;31365;48.858;8.530;2023-01-04T12:52:39;12.30;99.90
46336;DHT22;31365;48.858;8.530;2023-01-04T12:55:57;11.90;99.90
46336;DHT22;31365;48.858;8.530;2023-01-04T12:58:40;11.90;99.90
46336;DHT22;31365;48.858;8.530;2023-01-04T13:02:17;11.90;99.90
46336;DHT22;31365;48.858;8.530;2023-01-04T13:04:50;11.90;99.90
46336;DHT22;31365;48.858;8.530;2023-01-04T13:07:42;12.10;99.90
46336;DHT22;31365;48.858;8.530;2023-01-04T13:10:20;11.90;99.90
46336;DHT22;31365;48.858;8.530;2023-01-04T13:13:19;11.80;99.90
46336;DHT22;31365;48.858;8.530;2023-01-04T13:16:03;11.80;99.90
46336;DHT22;31365;48.858;8.530;2023-01-04T13:18:46;11.70;99.90
46336;DHT22;31365;48.858;8.530;2023-01-04T13:21:24;11.90;99.90
46336;DHT22;31365;48.858;8.530;2023-01-04T13:23:57;12.10;99.90
46336;DHT22;31365;48.858;8.530;2023-01-04T13:26:33;12.00;99.90
46336;DHT22;31365;48.858;8.530;2023-01-04T13:29:11;12.10;99.90
46336;DHT22;31365;48.858;8.530;2023-01-04T13:31:48;12.10;99.90
46336;DHT22;31365;48.858;8.530;2023-01-04T13:34:23;12.30;99.90
46336;DHT22;31365;48.858;8.530;2023-01-04T13:37:11;12.60;99.90
46336;DHT22;31365;48.858;8.530;2023-01-04T13:39:45;12.50;99.90
46336;DHT22;31365;48.858;8.530;2023-01-04T13:42:22;12.30;99.90
46336;DHT22;31365;48.858;8.530;2023-01-04T13:45:32;12.20;99.90
46336;DHT22;31365;48.858;8.530;2023-01-04T13:48:10;12.20;99.90
46336;DHT22;31365;48.858;8.530;2023-01-04T14:05:19;12.00;99.90
46336;DHT22;31365;48.858;8.530;2023-01-04T14:07:47;12.00;99.90
46336;DHT22;31365;48.858;8.530;2023-01-04T14:10:17;12.10;99.90
46336;DHT22;31365;48.858;8.530;2023-01-04T14:12:46;12.30;99.90
46336;DHT22;31365;48.858;8.530;2023-01-04T14:15:19;12.00;99.90
46336;DHT22;31365;48.858;8.530;2023-01-04T14:17:51;12.00;99.90
46336;DHT22;31365;48.858;8.530;2023-01-04T14:20:43;12.20;99.90
46336;DHT22;31365;48.858;8.530;2023-01-04T14:23:28;12.00;99.90
46336;DHT22;31365;48.858;8.530;2023-01-04T14:26:00;12.00;99.90
46336;DHT22;31365;48.858;8.530;2023-01-04T14:28:34;12.40;99.90
46336;DHT22;31365;48.858;8.530;2023-01-04T14:31:33;11.90;99.90
46336;DHT22;31365;48.858;8.530;2023-01-04T14:34:05;12.20;99.90
46336;DHT22;31365;48.858;8.530;2023-01-04T14:36:41;12.00;99.90
46336;DHT22;31365;48.858;8.530;2023-01-04T14:39:37;11.90;99.90
46336;DHT22;31365;48.858;8.530;2023-01-04T14:42:22;11.80;99.90
46336;DHT22;31365;48.858;8.530;2023-01-04T14:44:53;11.80;99.90
46336;DHT22;31365;48.858;8.530;2023-01-04T14:47:22;11.70;99.90
46336;DHT22;31365;48.858;8.530;2023-01-04T14:49:50;12.10;99.90
46336;DHT22;31365;48.858;8.530;2023-01-04T14:52:22;11.60;99.90
46336;DHT22;31365;48.858;8.530;2023-01-04T14:54:51;11.80;99.90
46336;DHT22;31365;48.858;8.530;2023-01-04T14:57:19;11.70;99.90
46336;DHT22;31365;48.858;8.530;2023-01-04T14:59:48;11.70;99.90
46336;DHT22;31365;48.858;8.530;2023-01-04T15:02:16;11.70;99.90
46336;DHT22;31365;48.858;8.530;2023-01-04T15:04:46;11.60;99.90
46336;DHT22;31365;48.858;8.530;2023-01-04T15:07:31;11.60;99.90
46336;DHT22;31365;48.858;8.530;2023-01-04T15:10:03;11.50;99.90
46336;DHT22;31365;48.858;8.530;2023-01-04T15:12:33;11.50;99.90
46336;DHT22;31365;48.858;8.530;2023-01-04T15:15:01;11.50;99.90
46336;DHT22;31365;48.858;8.530;2023-01-04T15:17:30;11.50;99.90
46336;DHT22;31365;48.858;8.530;2023-01-04T15:19:59;11.60;99.90
46336;DHT22;31365;48.858;8.530;2023-01-04T15:22:31;11.60;99.90
46336;DHT22;31365;48.858;8.530;2023-01-04T15:25:00;11.60;99.90
46336;DHT22;31365;48.858;8.530;2023-01-04T15:27:28;11.60;99.90
46336;DHT22;31365;48.858;8.530;2023-01-04T15:30:05;11.60;99.90
46336;DHT22;31365;48.858;8.530;2023-01-04T15:32:34;11.50;99.90
46336;DHT22;31365;48.858;8.530;2023-01-04T15:35:04;11.50;99.90
46336;DHT22;31365;48.858;8.530;2023-01-04T15:37:35;11.50;99.90
46336;DHT22;31365;48.858;8.530;2023-01-04T15:40:04;11.50;99.90
46336;DHT22;31365;48.858;8.530;2023-01-04T15:42:33;11.40;99.90
46336;DHT22;31365;48.858;8.530;2023-01-04T15:45:25;11.40;99.90
46336;DHT22;31365;48.858;8.530;2023-01-04T15:47:55;11.40;99.90
46336;DHT22;31365;48.858;8.530;2023-01-04T15:59:47;11.50;99.90
46336;DHT22;31365;48.858;8.530;2023-01-04T16:02:16;11.50;99.90
46336;DHT22;31365;48.858;8.530;2023-01-04T16:04:44;11.50;99.90
46336;DHT22;31365;48.858;8.530;2023-01-04T16:07:13;11.50;99.90
46336;DHT22;31365;48.858;8.530;2023-01-04T16:09:41;11.40;99.90
46336;DHT22;31365;48.858;8.530;2023-01-04T16:12:10;11.90;99.90
46336;DHT22;31365;48.858;8.530;2023-01-04T16:14:57;11.30;99.90
46336;DHT22;31365;48.858;8.530;2023-01-04T16:17:25;11.20;99.90
46336;DHT22;31365;48.858;8.530;2023-01-04T16:19:54;11.30;99.90
46336;DHT22;31365;48.858;8.530;2023-01-04T16:22:22;11.20;99.90
46336;DHT22;31365;48.858;8.530;2023-01-04T16:24:51;11.20;99.90
46336;DHT22;31365;48.858;8.530;2023-01-04T16:27:36;11.20;99.90
46336;DHT22;31365;48.858;8.530;2023-01-04T16:30:10;11.20;99.90
46336;DHT22;31365;48.858;8.530;2023-01-04T16:32:41;11.20;99.90
46336;DHT22;31365;48.858;8.530;2023-01-04T16:35:10;11.10;99.90
46336;DHT22;31365;48.858;8.530;2023-01-04T16:37:39;11.20;99.90
46336;DHT22;31365;48.858;8.530;2023-01-04T16:40:09;11.20;99.90
46336;DHT22;31365;48.858;8.530;2023-01-04T16:42:39;11.20;99.90
46336;DHT22;31365;48.858;8.530;2023-01-04T16:45:10;11.20;99.90
46336;DHT22;31365;48.858;8.530;2023-01-04T16:47:41;11.20;99.90
46336;DHT22;31365;48.858;8.530;2023-01-04T16:50:12;11.10;99.90
46336;DHT22;31365;48.858;8.530;2023-01-04T16:52:40;11.10;99.90
46336;DHT22;31365;48.858;8.530;2023-01-04T16:55:09;11.10;99.90
46336;DHT22;31365;48.858;8.530;2023-01-04T16:57:37;11.00;99.90
46336;DHT22;31365;48.858;8.530;2023-01-04T17:00:07;11.20;99.90
46336;DHT22;31365;48.858;8.530;2023-01-04T17:02:37;10.90;99.90
46336;DHT22;31365;48.858;8.530;2023-01-04T17:05:06;10.90;99.90
46336;DHT22;31365;48.858;8.530;2023-01-04T17:07:35;10.90;99.90
46336;DHT22;31365;48.858;8.530;2023-01-04T17:10:06;11.00;99.90
46336;DHT22;31365;48.858;8.530;2023-01-04T17:12:35;10.90;99.90
46336;DHT22;31365;48.858;8.530;2023-01-04T17:15:19;10.80;99.90
46336;DHT22;31365;48.858;8.530;2023-01-04T17:18:08;10.80;99.90
46336;DHT22;31365;48.858;8.530;2023-01-04T17:20:38;10.80;99.90
46336;DHT22;31365;48.858;8.530;2023-01-04T17:23:07;10.80;99.90
46336;DHT22;31365;48.858;8.530;2023-01-04T17:25:35;10.80;99.90
46336;DHT22;31365;48.858;8.530;2023-01-04T17:28:04;10.70;99.90
46336;DHT22;31365;48.858;8.530;2023-01-04T17:30:38;10.70;99.90
46336;DHT22;31365;48.858;8.530;2023-01-04T17:33:07;10.70;99.90
46336;DHT22;31365;48.858;8.530;2023-01-04T17:35:36;10.70;99.90
46336;DHT22;31365;48.858;8.530;2023-01-04T17:38:06;10.70;99.90